sensor_id;sensor_type;location;lat;lon;timestamp;pressure;altitude;pressure_sealevel;temperature;humidity
6028;BME280;3042;43.194;27.646;2023-12-04T00:00:06;102267.50;;;11.35;100.00
6028;BME280;3042;43.194;27.646;2023-12-04T00:02:34;102309.22;;;11.40;100.00
6028;BME280;3042;43.194;27.646;2023-12-04T00:05:01;102302.28;;;11.52;100.00
6028;BME280;3042;43.194;27.646;2023-12-04T00:07:28;102325.34;;;11.36;100.00
6028;BME280;3042;43.194;27.646;2023-12-04T00:09:55;102335.56;;;11.21;100.00
6028;BME280;3042;43.194;27.646;2023-12-04T00:12:22;102252.97;;;10.47;100.00
6028;BME280;3042;43.194;27.646;2023-12-04T00:14:51;102351.13;;;10.96;100.00
6028;BME280;3042;43.194;27.646;2023-12-04T00:17:18;102352.16;;;10.86;100.00
6028;BME280;3042;43.194;27.646;2023-12-04T00:19:46;102348.34;;;10.81;100.00
6028;BME280;3042;43.194;27.646;2023-12-04T00:22:13;102336.09;;;10.78;100.00
6028;BME280;3042;43.194;27.646;2023-12-04T00:24:42;102362.28;;;11.08;100.00
6028;BME280;3042;43.194;27.646;2023-12-04T00:27:11;102391.00;;;10.99;100.00
6028;BME280;3042;43.194;27.646;2023-12-04T00:29:39;102105.84;;;9.13;100.00
6028;BME280;3042;43.194;27.646;2023-12-04T00:32:08;102381.88;;;10.80;100.00
6028;BME280;3042;43.194;27.646;2023-12-04T00:34:35;102407.66;;;11.03;100.00
6028;BME280;3042;43.194;27.646;2023-12-04T00:37:03;102407.72;;;10.80;100.00
6028;BME280;3042;43.194;27.646;2023-12-04T00:39:30;102305.59;;;10.24;100.00
6028;BME280;3042;43.194;27.646;2023-12-04T00:41:57;102377.03;;;10.84;100.00
6028;BME280;3042;43.194;27.646;2023-12-04T00:44:24;102365.00;;;10.85;100.00
6028;BME280;3042;43.194;27.646;2023-12-04T00:46:51;102367.94;;;10.77;100.00
6028;BME280;3042;43.194;27.646;2023-12-04T00:49:20;102386.16;;;10.67;100.00
6028;BME280;3042;43.194;27.646;2023-12-04T00:51:47;102318.63;;;10.38;100.00
6028;BME280;3042;43.194;27.646;2023-12-04T00:54:14;102369.31;;;10.72;100.00
6028;BME280;3042;43.194;27.646;2023-12-04T00:56:42;102275.78;;;9.81;100.00
6028;BME280;3042;43.194;27.646;2023-12-04T00:59:12;102396.31;;;10.52;100.00
6028;BME280;3042;43.194;27.646;2023-12-04T01:01:39;102403.97;;;10.27;100.00
6028;BME280;3042;43.194;27.646;2023-12-04T01:04:08;102333.25;;;9.66;100.00
6028;BME280;3042;43.194;27.646;2023-12-04T01:06:36;102399.06;;;10.30;100.00
6028;BME280;3042;43.194;27.646;2023-12-04T01:09:03;102364.00;;;9.99;100.00
6028;BME280;3042;43.194;27.646;2023-12-04T01:11:31;102394.31;;;10.37;100.00
6028;BME280;3042;43.194;27.646;2023-12-04T01:14:01;102405.78;;;10.05;100.00
6028;BME280;3042;43.194;27.646;2023-12-04T01:16:28;102409.13;;;10.04;100.00
6028;BME280;3042;43.194;27.646;2023-12-04T01:18:55;102417.69;;;10.03;100.00
6028;BME280;3042;43.194;27.646;2023-12-04T01:21:22;102238.44;;;9.05;100.00
6028;BME280;3042;43.194;27.646;2023-12-04T01:23:51;102430.84;;;10.41;100.00
6028;BME280;3042;43.194;27.646;2023-12-04T01:26:18;102440.59;;;10.22;100.00
6028;BME280;3042;43.194;27.646;2023-12-04T01:28:45;102350.75;;;9.59;100.00
6028;BME280;3042;43.194;27.646;2023-12-04T01:31:13;102441.94;;;10.17;100.00
6028;BME280;3042;43.194;27.646;2023-12-04T01:33:40;102054.97;;;7.84;100.00
6028;BME280;3042;43.194;27.646;2023-12-04T01:36:08;102427.56;;;10.20;100.00
6028;BME280;3042;43.194;27.646;2023-12-04T01:38:36;102422.75;;;10.37;100.00
6028;BME280;3042;43.194;27.646;2023-12-04T01:41:06;102425.91;;;10.44;100.00
6028;BME280;3042;43.194;27.646;2023-12-04T01:43:33;102391.63;;;10.47;100.00
6028;BME280;3042;43.194;27.646;2023-12-04T01:46:01;102423.66;;;10.49;100.00
6028;BME280;3042;43.194;27.646;2023-12-04T01:48:28;102340.66;;;9.85;100.00
6028;BME280;3042;43.194;27.646;2023-12-04T01:50:58;102434.91;;;10.38;100.00
6028;BME280;3042;43.194;27.646;2023-12-04T01:53:26;102429.38;;;10.45;100.00
6028;BME280;3042;43.194;27.646;2023-12-04T01:55:53;102444.56;;;10.28;100.00
6028;BME280;3042;43.194;27.646;2023-12-04T01:58:22;102348.06;;;9.81;100.00
6028;BME280;3042;43.194;27.646;2023-12-04T02:00:50;102454.53;;;10.24;100.00
6028;BME280;3042;43.194;27.646;2023-12-04T02:03:17;102458.19;;;10.04;100.00
6028;BME280;3042;43.194;27.646;2023-12-04T02:05:44;102333.66;;;8.92;100.00
6028;BME280;3042;43.194;27.646;2023-12-04T02:08:13;102465.94;;;9.46;100.00
6028;BME280;3042;43.194;27.646;2023-12-04T02:10:41;102460.41;;;9.30;100.00
6028;BME280;3042;43.194;27.646;2023-12-04T02:13:09;102459.91;;;9.24;100.00
6028;BME280;3042;43.194;27.646;2023-12-04T02:15:37;102455.84;;;9.16;100.00
6028;BME280;3042;43.194;27.646;2023-12-04T02:18:05;102397.63;;;8.85;100.00
6028;BME280;3042;43.194;27.646;2023-12-04T02:20:32;102465.13;;;9.14;100.00
6028;BME280;3042;43.194;27.646;2023-12-04T02:23:01;102488.38;;;9.03;100.00
6028;BME280;3042;43.194;27.646;2023-12-04T02:25:30;102497.44;;;8.98;100.00
6028;BME280;3042;43.194;27.646;2023-12-04T02:28:01;102403.06;;;8.56;100.00
6028;BME280;3042;43.194;27.646;2023-12-04T02:30:30;102514.78;;;9.33;100.00
6028;BME280;3042;43.194;27.646;2023-12-04T02:32:58;102522.41;;;9.09;100.00
6028;BME280;3042;43.194;27.646;2023-12-04T02:35:28;102475.94;;;8.65;100.00
6028;BME280;3042;43.194;27.646;2023-12-04T02:37:56;102537.78;;;9.30;100.00
6028;BME280;3042;43.194;27.646;2023-12-04T02:40:25;102549.88;;;9.31;100.00
6028;BME280;3042;43.194;27.646;2023-12-04T02:42:54;102568.28;;;9.14;100.00
6028;BME280;3042;43.194;27.646;2023-12-04T02:45:21;102241.44;;;7.35;100.00
6028;BME280;3042;43.194;27.646;2023-12-04T02:47:48;102426.69;;;8.40;100.00
6028;BME280;3042;43.194;27.646;2023-12-04T02:50:16;102550.91;;;9.11;100.00
6028;BME280;3042;43.194;27.646;2023-12-04T02:52:43;102545.53;;;9.20;100.00
6028;BME280;3042;43.194;27.646;2023-12-04T02:55:10;102557.44;;;9.18;100.00
6028;BME280;3042;43.194;27.646;2023-12-04T02:57:37;102568.59;;;8.96;100.00
6028;BME280;3042;43.194;27.646;2023-12-04T03:00:07;102509.34;;;8.64;100.00
6028;BME280;3042;43.194;27.646;2023-12-04T03:02:35;102470.63;;;8.21;100.00
6028;BME280;3042;43.194;27.646;2023-12-04T03:05:02;102577.88;;;8.94;100.00
6028;BME280;3042;43.194;27.646;2023-12-04T03:07:30;102578.44;;;8.90;100.00
6028;BME280;3042;43.194;27.646;2023-12-04T03:09:57;102578.63;;;8.71;100.00
6028;BME280;3042;43.194;27.646;2023-12-04T03:12:24;102564.84;;;9.03;100.00
6028;BME280;3042;43.194;27.646;2023-12-04T03:14:52;102561.59;;;9.05;100.00
6028;BME280;3042;43.194;27.646;2023-12-04T03:17:20;102508.88;;;8.80;100.00
6028;BME280;3042;43.194;27.646;2023-12-04T03:19:48;102478.31;;;8.84;100.00
6028;BME280;3042;43.194;27.646;2023-12-04T03:22:17;102431.09;;;8.63;100.00
6028;BME280;3042;43.194;27.646;2023-12-04T03:24:44;102554.22;;;9.42;100.00
6028;BME280;3042;43.194;27.646;2023-12-04T03:27:12;102559.44;;;9.32;100.00
6028;BME280;3042;43.194;27.646;2023-12-04T03:29:39;102489.63;;;8.64;100.00
6028;BME280;3042;43.194;27.646;2023-12-04T03:32:06;102373.19;;;7.63;100.00
6028;BME280;3042;43.194;27.646;2023-12-04T03:34:35;102570.47;;;8.77;100.00
6028;BME280;3042;43.194;27.646;2023-12-04T03:37:02;102592.41;;;8.61;100.00
6028;BME280;3042;43.194;27.646;2023-12-04T03:39:30;102591.38;;;8.70;100.00
6028;BME280;3042;43.194;27.646;2023-12-04T03:42:01;102592.97;;;8.57;100.00
6028;BME280;3042;43.194;27.646;2023-12-04T03:44:28;102486.63;;;7.76;100.00
6028;BME280;3042;43.194;27.646;2023-12-04T03:46:56;102479.94;;;7.89;100.00
6028;BME280;3042;43.194;27.646;2023-12-04T03:49:24;102551.25;;;8.41;100.00
6028;BME280;3042;43.194;27.646;2023-12-04T03:51:52;102573.75;;;8.64;100.00
6028;BME280;3042;43.194;27.646;2023-12-04T03:54:19;102457.28;;;8.15;100.00
6028;BME280;3042;43.194;27.646;2023-12-04T03:56:47;102610.81;;;9.19;100.00
6028;BME280;3042;43.194;27.646;2023-12-04T03:59:14;102550.84;;;8.89;100.00
6028;BME280;3042;43.194;27.646;2023-12-04T04:01:41;102616.78;;;9.07;100.00
6028;BME280;3042;43.194;27.646;2023-12-04T04:04:08;102619.81;;;9.24;100.00
6028;BME280;3042;43.194;27.646;2023-12-04T04:06:35;102621.72;;;9.37;100.00
6028;BME280;3042;43.194;27.646;2023-12-04T04:09:05;102613.03;;;9.46;100.00
6028;BME280;3042;43.194;27.646;2023-12-04T04:11:32;102621.56;;;9.35;100.00
6028;BME280;3042;43.194;27.646;2023-12-04T04:13:59;102615.03;;;9.28;100.00
6028;BME280;3042;43.194;27.646;2023-12-04T04:16:27;102615.22;;;9.42;100.00
6028;BME280;3042;43.194;27.646;2023-12-04T04:18:54;102611.50;;;9.38;100.00
6028;BME280;3042;43.194;27.646;2023-12-04T04:21:21;102613.03;;;9.46;100.00
6028;BME280;3042;43.194;27.646;2023-12-04T04:23:48;102617.22;;;9.34;100.00
6028;BME280;3042;43.194;27.646;2023-12-04T04:26:17;102610.13;;;9.54;100.00
6028;BME280;3042;43.194;27.646;2023-12-04T04:28:44;102611.56;;;9.50;100.00
6028;BME280;3042;43.194;27.646;2023-12-04T04:31:11;102521.38;;;9.07;100.00
6028;BME280;3042;43.194;27.646;2023-12-04T04:33:38;102519.53;;;9.17;100.00
6028;BME280;3042;43.194;27.646;2023-12-04T04:36:06;102601.81;;;9.46;100.00
6028;BME280;3042;43.194;27.646;2023-12-04T04:38:35;102508.88;;;8.80;100.00
6028;BME280;3042;43.194;27.646;2023-12-04T04:41:03;102579.13;;;9.09;100.00
6028;BME280;3042;43.194;27.646;2023-12-04T04:43:32;102635.78;;;9.30;100.00
6028;BME280;3042;43.194;27.646;2023-12-04T04:45:59;102632.41;;;9.31;100.00
6028;BME280;3042;43.194;27.646;2023-12-04T04:48:26;102630.56;;;9.18;100.00
6028;BME280;3042;43.194;27.646;2023-12-04T04:50:53;102613.75;;;8.91;100.00
6028;BME280;3042;43.194;27.646;2023-12-04T04:53:20;102627.63;;;9.03;100.00
6028;BME280;3042;43.194;27.646;2023-12-04T04:55:48;102539.09;;;8.60;100.00
6028;BME280;3042;43.194;27.646;2023-12-04T04:58:15;102628.81;;;9.29;100.00
6028;BME280;3042;43.194;27.646;2023-12-04T05:00:43;102640.50;;;9.03;100.00
6028;BME280;3042;43.194;27.646;2023-12-04T05:03:11;102613.97;;;8.94;100.00
6028;BME280;3042;43.194;27.646;2023-12-04T05:05:38;102645.00;;;9.06;100.00
6028;BME280;3042;43.194;27.646;2023-12-04T05:08:05;102648.66;;;8.98;100.00
6028;BME280;3042;43.194;27.646;2023-12-04T05:10:32;102590.84;;;8.63;100.00
6028;BME280;3042;43.194;27.646;2023-12-04T05:12:59;102662.97;;;8.94;100.00
6028;BME280;3042;43.194;27.646;2023-12-04T05:15:27;102655.22;;;8.94;100.00
6028;BME280;3042;43.194;27.646;2023-12-04T05:17:55;102645.13;;;9.18;100.00
6028;BME280;3042;43.194;27.646;2023-12-04T05:20:22;102639.13;;;9.29;100.00
6028;BME280;3042;43.194;27.646;2023-12-04T05:22:50;102634.63;;;9.59;100.00
6028;BME280;3042;43.194;27.646;2023-12-04T05:25:18;102636.97;;;9.78;100.00
6028;BME280;3042;43.194;27.646;2023-12-04T05:27:45;102649.16;;;9.90;100.00
6028;BME280;3042;43.194;27.646;2023-12-04T05:30:13;102608.25;;;9.41;100.00
6028;BME280;3042;43.194;27.646;2023-12-04T05:32:40;102580.91;;;9.43;100.00
6028;BME280;3042;43.194;27.646;2023-12-04T05:35:09;102655.50;;;10.06;100.00
6028;BME280;3042;43.194;27.646;2023-12-04T05:37:36;102595.00;;;9.80;100.00
6028;BME280;3042;43.194;27.646;2023-12-04T05:40:04;102654.13;;;9.99;100.00
6028;BME280;3042;43.194;27.646;2023-12-04T05:42:31;102652.06;;;9.83;100.00
6028;BME280;3042;43.194;27.646;2023-12-04T05:44:59;102651.13;;;9.83;100.00
6028;BME280;3042;43.194;27.646;2023-12-04T05:47:26;102460.81;;;8.48;100.00
6028;BME280;3042;43.194;27.646;2023-12-04T05:49:53;102659.78;;;9.61;100.00
6028;BME280;3042;43.194;27.646;2023-12-04T05:52:22;102655.44;;;9.50;100.00
6028;BME280;3042;43.194;27.646;2023-12-04T05:54:49;102670.31;;;9.42;100.00
6028;BME280;3042;43.194;27.646;2023-12-04T05:57:17;102662.41;;;9.19;100.00
6028;BME280;3042;43.194;27.646;2023-12-04T05:59:44;102662.34;;;9.39;100.00
6028;BME280;3042;43.194;27.646;2023-12-04T06:02:11;102661.59;;;9.30;100.00
6028;BME280;3042;43.194;27.646;2023-12-04T06:04:40;102667.97;;;9.45;100.00
6028;BME280;3042;43.194;27.646;2023-12-04T06:07:08;102663.38;;;9.63;100.00
6028;BME280;3042;43.194;27.646;2023-12-04T06:09:37;102656.59;;;9.54;100.00
6028;BME280;3042;43.194;27.646;2023-12-04T06:12:04;102667.50;;;9.39;100.00
6028;BME280;3042;43.194;27.646;2023-12-04T06:14:34;102667.22;;;9.36;100.00
6028;BME280;3042;43.194;27.646;2023-12-04T06:17:02;102684.59;;;9.17;100.00
6028;BME280;3042;43.194;27.646;2023-12-04T06:19:29;102686.41;;;9.07;100.00
6028;BME280;3042;43.194;27.646;2023-12-04T06:21:56;102686.16;;;8.94;100.00
6028;BME280;3042;43.194;27.646;2023-12-04T06:24:24;102682.03;;;9.06;100.00
6028;BME280;3042;43.194;27.646;2023-12-04T06:26:53;102677.72;;;9.27;100.00
6028;BME280;3042;43.194;27.646;2023-12-04T06:29:21;102694.38;;;9.11;100.00
6028;BME280;3042;43.194;27.646;2023-12-04T06:31:49;102701.75;;;9.06;100.00
6028;BME280;3042;43.194;27.646;2023-12-04T06:34:16;102701.47;;;9.23;100.00
6028;BME280;3042;43.194;27.646;2023-12-04T06:36:44;102706.47;;;9.32;100.00
6028;BME280;3042;43.194;27.646;2023-12-04T06:39:12;102722.34;;;9.26;100.00
6028;BME280;3042;43.194;27.646;2023-12-04T06:41:41;102725.56;;;9.34;100.00
6028;BME280;3042;43.194;27.646;2023-12-04T06:44:10;102719.72;;;9.69;100.00
6028;BME280;3042;43.194;27.646;2023-12-04T06:46:38;102719.44;;;9.76;100.00
6028;BME280;3042;43.194;27.646;2023-12-04T06:49:09;102712.94;;;9.91;100.00
6028;BME280;3042;43.194;27.646;2023-12-04T06:51:38;102715.03;;;10.07;100.00
6028;BME280;3042;43.194;27.646;2023-12-04T06:54:05;102716.59;;;10.05;100.00
6028;BME280;3042;43.194;27.646;2023-12-04T06:56:33;102715.22;;;9.99;100.00
6028;BME280;3042;43.194;27.646;2023-12-04T06:59:00;102685.88;;;9.54;100.00
6028;BME280;3042;43.194;27.646;2023-12-04T07:01:29;102649.78;;;9.12;100.00
6028;BME280;3042;43.194;27.646;2023-12-04T07:03:56;102722.44;;;9.38;100.00
6028;BME280;3042;43.194;27.646;2023-12-04T07:06:23;102707.22;;;9.41;100.00
6028;BME280;3042;43.194;27.646;2023-12-04T07:08:50;102709.47;;;9.81;100.00
6028;BME280;3042;43.194;27.646;2023-12-04T07:11:18;102679.09;;;9.66;100.00
6028;BME280;3042;43.194;27.646;2023-12-04T07:13:45;102672.38;;;9.36;100.00
6028;BME280;3042;43.194;27.646;2023-12-04T07:16:12;102717.72;;;9.55;100.00
6028;BME280;3042;43.194;27.646;2023-12-04T07:18:41;102722.88;;;9.55;100.00
6028;BME280;3042;43.194;27.646;2023-12-04T07:21:09;102719.56;;;9.56;100.00
6028;BME280;3042;43.194;27.646;2023-12-04T07:23:36;102721.34;;;9.57;100.00
6028;BME280;3042;43.194;27.646;2023-12-04T07:26:04;102727.75;;;9.72;100.00
6028;BME280;3042;43.194;27.646;2023-12-04T07:28:32;102575.50;;;8.75;100.00
6028;BME280;3042;43.194;27.646;2023-12-04T07:31:00;102720.16;;;9.63;100.00
6028;BME280;3042;43.194;27.646;2023-12-04T07:33:27;102555.72;;;8.64;100.00
6028;BME280;3042;43.194;27.646;2023-12-04T07:35:56;102727.16;;;9.86;100.00
6028;BME280;3042;43.194;27.646;2023-12-04T07:38:23;102736.06;;;9.58;100.00
6028;BME280;3042;43.194;27.646;2023-12-04T07:40:50;102734.22;;;9.67;100.00
6028;BME280;3042;43.194;27.646;2023-12-04T07:43:17;102740.97;;;9.55;100.00
6028;BME280;3042;43.194;27.646;2023-12-04T07:45:44;102737.84;;;9.59;100.00
6028;BME280;3042;43.194;27.646;2023-12-04T07:48:12;102738.09;;;9.62;100.00
6028;BME280;3042;43.194;27.646;2023-12-04T07:50:39;102741.53;;;9.72;100.00
6028;BME280;3042;43.194;27.646;2023-12-04T07:53:08;102739.38;;;9.67;100.00
6028;BME280;3042;43.194;27.646;2023-12-04T07:55:37;102750.81;;;9.48;100.00
6028;BME280;3042;43.194;27.646;2023-12-04T07:58:04;102716.03;;;9.55;100.00
6028;BME280;3042;43.194;27.646;2023-12-04T08:00:32;102749.91;;;9.80;100.00
6028;BME280;3042;43.194;27.646;2023-12-04T08:02:59;102753.72;;;9.96;100.00
6028;BME280;3042;43.194;27.646;2023-12-04T08:05:26;102744.72;;;9.80;100.00
6028;BME280;3042;43.194;27.646;2023-12-04T08:07:53;102743.97;;;10.03;100.00
6028;BME280;3042;43.194;27.646;2023-12-04T08:10:22;102747.88;;;9.98;100.00
6028;BME280;3042;43.194;27.646;2023-12-04T08:12:49;102742.41;;;9.83;100.00
6028;BME280;3042;43.194;27.646;2023-12-04T08:15:17;102750.72;;;9.69;100.00
6028;BME280;3042;43.194;27.646;2023-12-04T08:17:44;102754.88;;;9.57;100.00
6028;BME280;3042;43.194;27.646;2023-12-04T08:20:11;102754.41;;;9.50;100.00
6028;BME280;3042;43.194;27.646;2023-12-04T08:22:39;102757.97;;;9.63;100.00
6028;BME280;3042;43.194;27.646;2023-12-04T08:25:07;102744.00;;;9.71;100.00
6028;BME280;3042;43.194;27.646;2023-12-04T08:27:36;102752.03;;;9.64;100.00
6028;BME280;3042;43.194;27.646;2023-12-04T08:30:04;102757.47;;;9.57;100.00
6028;BME280;3042;43.194;27.646;2023-12-04T08:32:32;102761.50;;;9.43;100.00
6028;BME280;3042;43.194;27.646;2023-12-04T08:35:02;102758.31;;;9.35;100.00
6028;BME280;3042;43.194;27.646;2023-12-04T08:37:32;102749.16;;;9.71;100.00
6028;BME280;3042;43.194;27.646;2023-12-04T08:39:59;102709.59;;;9.60;100.00
6028;BME280;3042;43.194;27.646;2023-12-04T08:42:26;102754.31;;;9.71;100.00
6028;BME280;3042;43.194;27.646;2023-12-04T08:44:55;102758.78;;;9.51;100.00
6028;BME280;3042;43.194;27.646;2023-12-04T08:47:22;102750.47;;;9.66;100.00
6028;BME280;3042;43.194;27.646;2023-12-04T08:49:49;102745.69;;;9.70;100.00
6028;BME280;3042;43.194;27.646;2023-12-04T08:52:17;102744.63;;;9.46;100.00
6028;BME280;3042;43.194;27.646;2023-12-04T08:54:44;102744.63;;;9.79;100.00
6028;BME280;3042;43.194;27.646;2023-12-04T08:57:11;102746.19;;;9.99;100.00
6028;BME280;3042;43.194;27.646;2023-12-04T08:59:39;102751.25;;;10.19;100.00
6028;BME280;3042;43.194;27.646;2023-12-04T09:02:07;102748.50;;;10.50;100.00
6028;BME280;3042;43.194;27.646;2023-12-04T09:04:36;102716.28;;;10.12;100.00
6028;BME280;3042;43.194;27.646;2023-12-04T09:07:03;102744.53;;;10.65;100.00
6028;BME280;3042;43.194;27.646;2023-12-04T09:09:30;102741.25;;;10.34;100.00
6028;BME280;3042;43.194;27.646;2023-12-04T09:11:58;102743.81;;;10.56;100.00
6028;BME280;3042;43.194;27.646;2023-12-04T09:14:25;102738.34;;;10.41;100.00
6028;BME280;3042;43.194;27.646;2023-12-04T09:16:53;102748.28;;;10.47;100.00
6028;BME280;3042;43.194;27.646;2023-12-04T09:19:22;102610.59;;;9.38;100.00
6028;BME280;3042;43.194;27.646;2023-12-04T09:21:49;102740.34;;;10.11;100.00
6028;BME280;3042;43.194;27.646;2023-12-04T09:24:16;102643.72;;;9.43;100.00
6028;BME280;3042;43.194;27.646;2023-12-04T09:26:44;102733.94;;;10.18;100.00
6028;BME280;3042;43.194;27.646;2023-12-04T09:29:11;102738.03;;;10.26;100.00
6028;BME280;3042;43.194;27.646;2023-12-04T09:31:39;102740.13;;;10.30;100.00
6028;BME280;3042;43.194;27.646;2023-12-04T09:34:06;102729.78;;;10.20;100.00
6028;BME280;3042;43.194;27.646;2023-12-04T09:36:35;102733.72;;;10.37;100.00
6028;BME280;3042;43.194;27.646;2023-12-04T09:39:02;102730.94;;;10.46;100.00
6028;BME280;3042;43.194;27.646;2023-12-04T09:41:32;102727.91;;;10.73;100.00
6028;BME280;3042;43.194;27.646;2023-12-04T09:43:59;102730.81;;;10.78;100.00
6028;BME280;3042;43.194;27.646;2023-12-04T09:46:27;102729.94;;;10.77;100.00
6028;BME280;3042;43.194;27.646;2023-12-04T09:48:54;102726.81;;;10.48;100.00
6028;BME280;3042;43.194;27.646;2023-12-04T09:51:24;102685.44;;;10.48;100.00
6028;BME280;3042;43.194;27.646;2023-12-04T09:53:54;102713.28;;;10.86;100.00
6028;BME280;3042;43.194;27.646;2023-12-04T09:56:22;102723.19;;;10.80;100.00
6028;BME280;3042;43.194;27.646;2023-12-04T09:58:52;102685.44;;;10.48;100.00
6028;BME280;3042;43.194;27.646;2023-12-04T10:01:20;102503.13;;;9.60;100.00
6028;BME280;3042;43.194;27.646;2023-12-04T10:03:48;102677.38;;;10.55;100.00
6028;BME280;3042;43.194;27.646;2023-12-04T10:06:16;102715.06;;;10.63;100.00
6028;BME280;3042;43.194;27.646;2023-12-04T10:08:44;102711.72;;;10.88;100.00
6028;BME280;3042;43.194;27.646;2023-12-04T10:11:13;102716.47;;;10.82;100.00
6028;BME280;3042;43.194;27.646;2023-12-04T10:13:40;102709.25;;;10.89;100.00
6028;BME280;3042;43.194;27.646;2023-12-04T10:16:08;102718.47;;;10.86;100.00
6028;BME280;3042;43.194;27.646;2023-12-04T10:18:35;102721.06;;;10.86;100.00
6028;BME280;3042;43.194;27.646;2023-12-04T10:21:03;102655.94;;;10.56;100.00
6028;BME280;3042;43.194;27.646;2023-12-04T10:23:37;102707.72;;;11.03;100.00
6028;BME280;3042;43.194;27.646;2023-12-04T10:26:05;102715.81;;;10.96;100.00
6028;BME280;3042;43.194;27.646;2023-12-04T10:28:35;102674.13;;;10.69;100.00
6028;BME280;3042;43.194;27.646;2023-12-04T10:31:02;102712.88;;;11.03;100.00
6028;BME280;3042;43.194;27.646;2023-12-04T10:33:32;102718.94;;;11.04;100.00
6028;BME280;3042;43.194;27.646;2023-12-04T10:35:59;102707.94;;;11.30;100.00
6028;BME280;3042;43.194;27.646;2023-12-04T10:38:28;102705.81;;;11.12;100.00
6028;BME280;3042;43.194;27.646;2023-12-04T10:40:55;102702.75;;;11.06;100.00
6028;BME280;3042;43.194;27.646;2023-12-04T10:43:23;102686.44;;;11.07;100.00
6028;BME280;3042;43.194;27.646;2023-12-04T10:45:52;102708.63;;;11.15;100.00
6028;BME280;3042;43.194;27.646;2023-12-04T10:48:20;102705.00;;;11.49;100.00
6028;BME280;3042;43.194;27.646;2023-12-04T10:50:48;102622.44;;;11.16;100.00
6028;BME280;3042;43.194;27.646;2023-12-04T10:53:17;102662.91;;;11.28;100.00
6028;BME280;3042;43.194;27.646;2023-12-04T10:55:44;102653.94;;;11.23;100.00
6028;BME280;3042;43.194;27.646;2023-12-04T10:58:13;102709.03;;;11.57;100.00
6028;BME280;3042;43.194;27.646;2023-12-04T11:00:43;102717.50;;;11.54;100.00
6028;BME280;3042;43.194;27.646;2023-12-04T11:03:16;102704.09;;;11.48;100.00
6028;BME280;3042;43.194;27.646;2023-12-04T11:05:45;102716.50;;;11.29;100.00
6028;BME280;3042;43.194;27.646;2023-12-04T11:08:17;102709.06;;;11.33;100.00
6028;BME280;3042;43.194;27.646;2023-12-04T11:10:48;102699.41;;;11.31;100.00
6028;BME280;3042;43.194;27.646;2023-12-04T11:13:17;102709.03;;;11.57;100.00
6028;BME280;3042;43.194;27.646;2023-12-04T11:15:49;102693.34;;;11.79;100.00
6028;BME280;3042;43.194;27.646;2023-12-04T11:18:22;102684.13;;;11.94;100.00
6028;BME280;3042;43.194;27.646;2023-12-04T11:20:55;102689.22;;;12.31;100.00
6028;BME280;3042;43.194;27.646;2023-12-04T11:23:23;102650.72;;;12.24;100.00
6028;BME280;3042;43.194;27.646;2023-12-04T11:25:51;102687.66;;;12.33;100.00
6028;BME280;3042;43.194;27.646;2023-12-04T11:28:20;102685.88;;;12.32;100.00
6028;BME280;3042;43.194;27.646;2023-12-04T11:30:48;102692.63;;;12.30;100.00
6028;BME280;3042;43.194;27.646;2023-12-04T11:33:16;102689.88;;;12.40;100.00
6028;BME280;3042;43.194;27.646;2023-12-04T11:36:06;102687.91;;;12.50;100.00
6028;BME280;3042;43.194;27.646;2023-12-04T11:38:35;102685.53;;;12.66;100.00
6028;BME280;3042;43.194;27.646;2023-12-04T11:41:14;102686.59;;;12.81;100.00
6028;BME280;3042;43.194;27.646;2023-12-04T11:43:42;102684.81;;;12.94;100.00
6028;BME280;3042;43.194;27.646;2023-12-04T11:46:10;102687.50;;;12.95;100.00
6028;BME280;3042;43.194;27.646;2023-12-04T11:48:38;102639.44;;;12.49;100.00
6028;BME280;3042;43.194;27.646;2023-12-04T11:51:07;102595.75;;;12.55;100.00
6028;BME280;3042;43.194;27.646;2023-12-04T11:53:37;102676.41;;;13.24;100.00
6028;BME280;3042;43.194;27.646;2023-12-04T11:56:09;102678.63;;;13.05;100.00
6028;BME280;3042;43.194;27.646;2023-12-04T11:58:42;102673.91;;;12.99;100.00
6028;BME280;3042;43.194;27.646;2023-12-04T12:01:09;102665.75;;;13.06;100.00
6028;BME280;3042;43.194;27.646;2023-12-04T12:03:36;102476.59;;;12.16;100.00
6028;BME280;3042;43.194;27.646;2023-12-04T12:06:07;102676.84;;;13.30;100.00
6028;BME280;3042;43.194;27.646;2023-12-04T12:08:35;102670.06;;;13.33;100.00
6028;BME280;3042;43.194;27.646;2023-12-04T12:11:02;102671.03;;;13.21;100.00
6028;BME280;3042;43.194;27.646;2023-12-04T12:13:30;102681.13;;;12.90;100.00
6028;BME280;3042;43.194;27.646;2023-12-04T12:15:58;102670.44;;;12.85;100.00
6028;BME280;3042;43.194;27.646;2023-12-04T12:18:25;102662.88;;;13.02;100.00
6028;BME280;3042;43.194;27.646;2023-12-04T12:20:54;102596.78;;;12.70;100.00
6028;BME280;3042;43.194;27.646;2023-12-04T12:23:24;102663.47;;;13.11;100.00
6028;BME280;3042;43.194;27.646;2023-12-04T12:25:51;102670.25;;;13.09;100.00
6028;BME280;3042;43.194;27.646;2023-12-04T12:28:18;102676.63;;;13.14;100.00
6028;BME280;3042;43.194;27.646;2023-12-04T12:30:45;102591.38;;;12.54;100.00
6028;BME280;3042;43.194;27.646;2023-12-04T12:33:13;102679.81;;;12.97;100.00
6028;BME280;3042;43.194;27.646;2023-12-04T12:35:41;102686.38;;;12.92;100.00
6028;BME280;3042;43.194;27.646;2023-12-04T12:38:08;102672.53;;;13.04;100.00
6028;BME280;3042;43.194;27.646;2023-12-04T12:40:37;102673.63;;;12.81;100.00
6028;BME280;3042;43.194;27.646;2023-12-04T12:43:05;102682.38;;;12.70;100.00
6028;BME280;3042;43.194;27.646;2023-12-04T12:45:39;102686.63;;;12.56;100.00
6028;BME280;3042;43.194;27.646;2023-12-04T12:48:09;102685.16;;;12.35;100.00
6028;BME280;3042;43.194;27.646;2023-12-04T12:50:37;102690.88;;;12.42;100.00
6028;BME280;3042;43.194;27.646;2023-12-04T12:53:04;102682.91;;;12.39;100.00
6028;BME280;3042;43.194;27.646;2023-12-04T12:55:31;102657.50;;;12.22;100.00
6028;BME280;3042;43.194;27.646;2023-12-04T12:58:00;102654.38;;;12.39;100.00